Time;durP1;ratioP1;P1;durP2;ratioP2;P2;SDS_P1;SDS_P2;PMS_P1;PMS_P2;Temp;Humidity;BMP_temperature;BMP_pressure;BME280_temperature;BME280_humidity;BME280_pressure;Samples;Min_cycle;Max_cycle;Signal;HPM_P1;HPM_P2
2022/03/27 00:02:09;;;;;;;14.75;6.35;;;9.40;69.20;;;;;;4996222;28;20461;-84
2022/03/27 00:04:35;;;;;;;16.73;7.43;;;9.40;69.40;;;;;;4995642;28;20121;-84
2022/03/27 00:07:01;;;;;;;14.20;6.63;;;9.30;69.70;;;;;;4996025;28;20115;-85
2022/03/27 00:09:26;;;;;;;15.25;6.20;;;9.30;70.00;;;;;;4978244;28;20118;-84
2022/03/27 00:11:52;;;;;;;15.48;6.82;;;9.40;69.70;;;;;;4977568;28;20053;-84
2022/03/27 00:14:18;;;;;;;19.13;7.20;;;9.20;70.90;;;;;;4995628;28;20383;-84
2022/03/27 00:16:43;;;;;;;17.13;7.43;;;9.20;71.10;;;;;;4978008;28;20065;-85
2022/03/27 00:19:09;;;;;;;14.45;6.72;;;9.30;70.80;;;;;;4995264;28;20045;-81
2022/03/27 00:21:35;;;;;;;14.95;6.70;;;9.20;71.30;;;;;;4977803;28;20118;-84
2022/03/27 00:24:01;;;;;;;12.57;6.82;;;9.10;71.60;;;;;;4995169;28;20053;-84
2022/03/27 00:26:27;;;;;;;23.50;9.05;;;9.10;71.70;;;;;;4977657;28;20113;-84
2022/03/27 00:28:53;;;;;;;26.67;7.88;;;9.00;72.00;;;;;;4977785;28;20053;-84
2022/03/27 00:31:19;;;;;;;16.65;7.75;;;8.90;72.60;;;;;;4995187;28;20490;-84
2022/03/27 00:33:46;;;;;;;16.38;7.10;;;8.90;72.50;;;;;;5007791;28;20030;-84
2022/03/27 00:36:13;;;;;;;17.50;7.75;;;8.90;72.50;;;;;;5011896;28;20018;-85
2022/03/27 00:38:43;;;;;;;18.50;7.78;;;8.90;72.60;;;;;;5012064;28;20023;-84
2022/03/27 00:41:09;;;;;;;20.20;7.55;;;9.00;72.00;;;;;;5012381;28;20030;-85
2022/03/27 00:43:35;;;;;;;14.25;7.03;;;8.90;72.40;;;;;;5006713;28;20486;-85
2022/03/27 00:46:02;;;;;;;16.65;6.93;;;8.80;73.90;;;;;;5006072;28;20085;-85
2022/03/27 00:48:27;;;;;;;15.05;6.63;;;8.70;74.30;;;;;;4987366;28;20031;-84
2022/03/27 00:50:54;;;;;;;21.60;7.55;;;8.60;75.20;;;;;;5004713;28;20056;-85
2022/03/27 00:53:21;;;;;;;19.50;6.95;;;8.60;75.70;;;;;;5004455;28;20026;-84
2022/03/27 00:55:48;;;;;;;16.02;6.47;;;8.60;75.90;;;;;;5034274;22;20030;-87
2022/03/27 00:58:16;;;;;;;21.67;8.38;;;8.50;77.00;;;;;;4975882;28;20067;-87
2022/03/27 01:00:44;;;;;;;18.02;7.63;;;8.50;77.30;;;;;;4989533;28;20038;-87
2022/03/27 01:03:20;;;;;;;17.90;7.13;;;8.60;77.10;;;;;;4991415;28;20033;-87
2022/03/27 01:05:48;;;;;;;16.77;7.70;;;8.50;77.40;;;;;;4986621;28;20027;-86
2022/03/27 01:08:14;;;;;;;15.25;7.78;;;8.40;78.40;;;;;;4974343;28;20023;-87
2022/03/27 01:10:41;;;;;;;17.35;7.75;;;8.50;79.10;;;;;;4956571;28;20027;-87
2022/03/27 01:13:19;;;;;;;22.70;7.63;;;8.50;78.70;;;;;;4958320;28;20486;-87
2022/03/27 01:15:53;;;;;;;21.13;8.10;;;8.40;78.90;;;;;;4997042;28;20037;-86
2022/03/27 01:18:20;;;;;;;18.25;7.63;;;8.40;79.40;;;;;;4992790;28;20030;-87
2022/03/27 01:20:46;;;;;;;17.75;7.00;;;8.20;81.90;;;;;;4997982;28;20110;-88
2022/03/27 01:23:14;;;;;;;17.77;8.25;;;8.20;81.50;;;;;;4999447;28;20034;-86
2022/03/27 01:25:43;;;;;;;16.27;7.50;;;8.20;81.50;;;;;;4998511;28;20026;-86
2022/03/27 01:28:14;;;;;;;17.33;7.28;;;8.30;81.40;;;;;;4999303;28;20034;-86
2022/03/27 01:30:41;;;;;;;24.52;7.35;;;8.20;82.10;;;;;;4998472;28;20033;-85
2022/03/27 01:33:09;;;;;;;16.75;7.68;;;8.00;84.50;;;;;;4998686;28;20113;-86
2022/03/27 01:35:38;;;;;;;16.10;7.40;;;7.90;85.30;;;;;;4981150;28;20023;-86
2022/03/27 01:38:04;;;;;;;13.10;7.18;;;7.80;85.40;;;;;;4999126;28;20030;-86
2022/03/27 01:40:30;;;;;;;13.50;7.50;;;7.90;85.30;;;;;;4997535;28;20367;-85
2022/03/27 01:42:55;;;;;;;19.67;8.40;;;7.80;86.60;;;;;;4997822;28;20031;-85
2022/03/27 01:45:27;;;;;;;26.83;7.75;;;;;;;;;;4999057;28;20040;-84
2022/03/27 01:47:53;;;;;;;15.10;7.80;;;7.80;86.00;;;;;;4998273;28;20033;-86
2022/03/27 01:50:19;;;;;;;17.05;7.97;;;7.70;87.60;;;;;;4998046;28;20034;-86
2022/03/27 01:52:44;;;;;;;17.75;7.70;;;7.70;88.00;;;;;;4999277;28;20026;-85
2022/03/27 01:55:13;;;;;;;18.17;7.25;;;7.70;88.20;;;;;;4998372;28;20015;-85
2022/03/27 01:57:41;;;;;;;21.70;8.10;;;7.60;89.60;;;;;;4995713;28;20034;-86
2022/03/27 02:00:09;;;;;;;21.30;7.25;;;7.40;91.10;;;;;;4978076;28;20022;-86
2022/03/27 02:02:35;;;;;;;16.33;7.40;;;7.50;90.80;;;;;;4995581;28;20018;-86
2022/03/27 02:05:01;;;;;;;19.17;7.18;;;7.60;90.20;;;;;;4996090;28;20053;-86
2022/03/27 02:07:27;;;;;;;15.63;7.38;;;7.40;90.40;;;;;;4996161;28;20042;-86
2022/03/27 02:09:52;;;;;;;17.90;8.07;;;7.30;91.40;;;;;;4997852;28;20038;-86
2022/03/27 02:12:18;;;;;;;20.17;8.57;;;7.20;92.40;;;;;;5000574;28;20540;-86
2022/03/27 02:14:44;;;;;;;15.60;8.90;;;7.20;91.90;;;;;;5001295;28;20038;-86
2022/03/27 02:17:10;;;;;;;22.60;9.13;;;7.10;92.40;;;;;;4996237;28;20466;-86
2022/03/27 02:19:36;;;;;;;20.52;8.27;;;7.00;93.40;;;;;;4965658;28;20034;-85
2022/03/27 02:22:02;;;;;;;20.48;8.25;;;7.00;93.60;;;;;;4999144;28;20517;-86
2022/03/27 02:24:28;;;;;;;20.15;9.35;;;7.00;93.60;;;;;;5000922;28;20027;-85
2022/03/27 02:26:54;;;;;;;19.25;9.27;;;7.10;93.30;;;;;;4999332;28;20038;-85
2022/03/27 02:29:20;;;;;;;18.17;9.57;;;7.00;93.90;;;;;;5001188;28;20030;-86
2022/03/27 02:31:46;;;;;;;20.38;10.98;;;7.00;93.40;;;;;;5006693;28;20027;-84
2022/03/27 02:34:12;;;;;;;30.00;10.05;;;7.10;93.20;;;;;;5020328;28;20031;-83
2022/03/27 02:36:38;;;;;;;16.50;9.32;;;6.90;94.50;;;;;;5019200;28;20041;-85
2022/03/27 02:39:04;;;;;;;18.85;9.93;;;6.90;95.20;;;;;;5004341;28;20050;-84
2022/03/27 02:41:30;;;;;;;17.38;9.23;;;6.90;95.00;;;;;;5003731;28;20026;-85
2022/03/27 02:43:55;;;;;;;20.77;9.43;;;6.90;95.40;;;;;;4986359;28;20049;-85
2022/03/27 02:46:21;;;;;;;21.70;9.40;;;6.90;95.80;;;;;;4999921;28;20030;-84
2022/03/27 02:48:46;;;;;;;21.00;8.65;;;6.80;96.40;;;;;;4998115;28;20042;-85
2022/03/27 02:51:12;;;;;;;20.40;8.55;;;6.90;96.20;;;;;;4998616;28;20127;-86
2022/03/27 02:53:38;;;;;;;19.70;8.05;;;6.90;96.70;;;;;;4997888;28;20050;-86
2022/03/27 02:56:04;;;;;;;17.73;8.85;;;6.80;96.60;;;;;;4980138;28;20035;-87
2022/03/27 02:58:30;;;;;;;22.65;8.27;;;6.80;96.90;;;;;;4997802;28;20035;-87
2022/03/27 03:00:56;;;;;;;24.40;9.00;;;6.90;96.90;;;;;;4979904;28;20031;-87
2022/03/27 03:03:22;;;;;;;24.50;8.75;;;6.90;96.90;;;;;;4979989;28;20037;-86
2022/03/27 03:05:49;;;;;;;24.92;8.07;;;6.80;97.30;;;;;;4995608;28;20069;-86
2022/03/27 03:08:17;;;;;;;19.35;8.55;;;6.80;97.60;;;;;;4997017;28;20034;-86
2022/03/27 03:10:43;;;;;;;21.02;7.97;;;6.80;97.60;;;;;;4980088;28;20027;-86
2022/03/27 03:13:09;;;;;;;19.00;7.10;;;6.90;97.20;;;;;;4979568;28;20081;-86
2022/03/27 03:15:37;;;;;;;14.57;7.32;;;6.80;97.90;;;;;;4999159;28;20098;-86
2022/03/27 03:18:04;;;;;;;16.90;7.45;;;6.70;98.90;;;;;;4979278;28;20109;-86
2022/03/27 03:20:30;;;;;;;13.27;7.63;;;6.70;99.20;;;;;;5003463;28;20749;-86
2022/03/27 03:22:56;;;;;;;24.40;7.35;;;6.70;99.70;;;;;;5002471;28;20094;-85
2022/03/27 03:25:21;;;;;;;16.77;7.68;;;6.60;99.90;;;;;;4985385;28;20034;-85
2022/03/27 03:27:47;;;;;;;15.65;7.43;;;6.60;99.90;;;;;;4986281;28;20027;-84
2022/03/27 03:30:13;;;;;;;13.00;7.03;;;6.70;99.90;;;;;;4985926;28;20122;-86
2022/03/27 03:32:39;;;;;;;18.02;8.23;;;6.70;99.90;;;;;;4985633;28;20053;-84
2022/03/27 03:35:05;;;;;;;14.63;7.25;;;6.70;99.90;;;;;;5002269;28;20030;-85
2022/03/27 03:37:31;;;;;;;17.92;7.93;;;6.60;99.90;;;;;;4985327;28;20027;-84
2022/03/27 03:39:57;;;;;;;18.55;7.82;;;6.60;99.90;;;;;;5001544;28;20427;-85
2022/03/27 03:42:22;;;;;;;17.38;7.97;;;6.70;99.90;;;;;;4983090;28;20038;-86
2022/03/27 03:44:48;;;;;;;14.82;7.82;;;6.60;99.90;;;;;;4998499;28;20038;-86
2022/03/27 03:47:14;;;;;;;17.35;8.10;;;6.50;99.90;;;;;;4979563;28;20037;-86
2022/03/27 03:49:40;;;;;;;16.70;7.78;;;6.50;99.90;;;;;;4980024;28;20027;-86
2022/03/27 03:52:07;;;;;;;16.38;7.90;;;6.50;99.90;;;;;;4979309;28;20029;-87
2022/03/27 03:54:34;;;;;;;17.40;7.15;;;6.50;99.90;;;;;;4997324;28;20050;-86
2022/03/27 03:57:00;;;;;;;17.58;7.88;;;6.40;99.90;;;;;;4996270;28;20058;-87
2022/03/27 03:59:28;;;;;;;18.50;7.53;;;6.40;99.90;;;;;;4996053;28;20483;-86
2022/03/27 04:01:53;;;;;;;16.27;7.75;;;6.40;99.90;;;;;;4996555;28;20053;-87
2022/03/27 04:04:19;;;;;;;14.63;7.47;;;6.30;99.90;;;;;;4994224;28;20031;-87
2022/03/27 04:06:44;;;;;;;15.70;7.10;;;6.30;99.90;;;;;;4959331;28;20443;-87
2022/03/27 04:09:10;;;;;;;14.48;7.32;;;6.20;99.90;;;;;;4959688;28;20487;-87
2022/03/27 04:11:36;;;;;;;16.40;7.28;;;6.30;99.90;;;;;;4958858;28;20122;-87
2022/03/27 04:14:01;;;;;;;15.20;7.32;;;6.40;99.90;;;;;;4976110;28;20023;-87
2022/03/27 04:16:28;;;;;;;14.50;7.45;;;6.30;99.90;;;;;;4976292;28;20459;-87
2022/03/27 04:18:53;;;;;;;15.93;7.97;;;6.30;99.90;;;;;;4974363;28;20023;-87
2022/03/27 04:21:19;;;;;;;20.92;7.60;;;6.20;99.90;;;;;;4959403;28;20035;-86
2022/03/27 04:23:45;;;;;;;14.20;7.72;;;6.20;99.90;;;;;;4984280;28;20522;-85
2022/03/27 04:26:12;;;;;;;18.20;7.40;;;6.20;99.90;;;;;;4979613;28;20037;-87
2022/03/27 04:28:37;;;;;;;13.15;7.45;;;6.10;99.90;;;;;;4980355;28;20096;-86
2022/03/27 04:31:03;;;;;;;16.67;6.97;;;6.10;99.90;;;;;;4997846;28;20053;-86
2022/03/27 04:33:29;;;;;;;14.85;6.95;;;6.10;99.90;;;;;;4998113;28;20031;-88
2022/03/27 04:35:54;;;;;;;16.17;7.10;;;6.00;99.90;;;;;;4998140;28;20379;-85
2022/03/27 04:38:20;;;;;;;12.68;6.70;;;6.00;99.90;;;;;;4997956;28;20044;-86
2022/03/27 04:40:46;;;;;;;14.95;7.35;;;6.10;99.90;;;;;;4980174;28;20065;-86
2022/03/27 04:43:12;;;;;;;21.13;8.32;;;6.00;99.90;;;;;;4995271;28;20026;-86
2022/03/27 04:45:38;;;;;;;16.95;7.53;;;6.00;99.90;;;;;;4978219;28;20117;-87
2022/03/27 04:48:04;;;;;;;13.13;7.43;;;5.90;99.90;;;;;;4997705;28;20061;-86
2022/03/27 04:50:30;;;;;;;18.65;7.72;;;5.90;99.90;;;;;;4996145;28;20657;-87
2022/03/27 04:52:55;;;;;;;17.20;8.13;;;5.90;99.90;;;;;;4995401;28;20050;-87
2022/03/27 04:55:21;;;;;;;16.13;8.05;;;5.80;99.90;;;;;;5002084;28;20023;-86
2022/03/27 04:57:48;;;;;;;14.70;7.88;;;5.80;99.90;;;;;;5001621;28;20116;-87
2022/03/27 05:00:14;;;;;;;15.23;7.63;;;5.80;99.90;;;;;;5002410;28;20045;-86
2022/03/27 05:02:41;;;;;;;18.77;7.38;;;5.70;99.90;;;;;;4984534;28;20121;-86
2022/03/27 05:05:10;;;;;;;20.77;8.35;;;5.70;99.90;;;;;;5001972;28;20081;-84
2022/03/27 05:07:37;;;;;;;18.52;8.15;;;5.80;99.90;;;;;;4998260;28;20026;-86
2022/03/27 05:10:04;;;;;;;19.15;9.05;;;5.80;99.90;;;;;;4997330;28;20031;-85
2022/03/27 05:12:30;;;;;;;15.93;7.70;;;5.70;99.90;;;;;;4997567;28;20069;-88
2022/03/27 05:14:56;;;;;;;15.00;7.57;;;5.70;99.90;;;;;;4996558;28;20031;-86
2022/03/27 05:17:22;;;;;;;19.98;8.77;;;5.70;99.90;;;;;;4996128;28;20022;-87
2022/03/27 05:19:48;;;;;;;16.70;8.75;;;5.70;99.90;;;;;;4997491;28;20047;-86
2022/03/27 05:22:13;;;;;;;15.43;8.55;;;5.70;99.90;;;;;;4997551;28;20056;-85
2022/03/27 05:24:39;;;;;;;18.90;8.55;;;5.60;99.90;;;;;;4997774;28;20486;-86
2022/03/27 05:27:05;;;;;;;18.35;7.82;;;5.60;99.90;;;;;;4997819;28;20030;-85
2022/03/27 05:29:31;;;;;;;27.58;9.00;;;5.60;99.90;;;;;;4997368;28;20036;-86
2022/03/27 05:31:57;;;;;;;19.70;8.52;;;5.60;99.90;;;;;;4997313;28;20454;-86
2022/03/27 05:34:23;;;;;;;16.63;7.93;;;5.50;99.90;;;;;;4998010;28;20635;-85
2022/03/27 05:36:49;;;;;;;19.55;7.97;;;5.60;99.90;;;;;;4997694;28;20179;-86
2022/03/27 05:39:14;;;;;;;19.90;8.30;;;5.50;99.90;;;;;;4979948;28;20055;-87
2022/03/27 05:41:40;;;;;;;19.20;8.95;;;5.50;99.90;;;;;;4978179;28;20119;-86
2022/03/27 05:44:06;;;;;;;22.35;10.02;;;5.60;99.90;;;;;;4960370;28;20023;-87
2022/03/27 05:46:31;;;;;;;18.70;9.35;;;5.50;99.90;;;;;;4988049;28;20026;-86
2022/03/27 05:48:57;;;;;;;20.10;9.05;;;5.50;99.90;;;;;;5000446;28;20022;-87
2022/03/27 05:51:23;;;;;;;24.00;9.05;;;5.50;99.90;;;;;;5000906;28;20030;-86
2022/03/27 05:53:48;;;;;;;17.35;8.43;;;5.60;99.90;;;;;;5001417;28;20023;-87
2022/03/27 05:56:14;;;;;;;21.40;8.85;;;5.60;99.90;;;;;;5000575;28;20031;-87
2022/03/27 05:58:41;;;;;;;18.95;9.30;;;5.60;99.90;;;;;;5000888;28;20038;-87
2022/03/27 06:01:06;;;;;;;20.50;10.15;;;5.60;99.90;;;;;;4983800;28;20110;-86
2022/03/27 06:03:32;;;;;;;20.95;9.55;;;5.60;99.90;;;;;;5000129;28;20026;-86
2022/03/27 06:05:58;;;;;;;24.95;9.95;;;5.70;99.90;;;;;;4983305;28;20045;-86
2022/03/27 06:08:24;;;;;;;25.85;10.38;;;5.70;99.90;;;;;;4999928;28;20129;-87
2022/03/27 06:10:50;;;;;;;23.80;9.73;;;5.80;99.90;;;;;;5000050;28;20030;-86
2022/03/27 06:13:16;;;;;;;21.23;9.38;;;5.70;99.90;;;;;;5001070;28;20054;-87
2022/03/27 06:15:42;;;;;;;26.02;9.77;;;5.70;99.90;;;;;;4982876;28;20109;-86
2022/03/27 06:18:09;;;;;;;17.10;9.02;;;5.70;99.90;;;;;;4972301;28;20458;-87
2022/03/27 06:20:35;;;;;;;21.27;10.23;;;5.80;99.90;;;;;;4963746;28;20054;-86
2022/03/27 06:23:01;;;;;;;26.65;9.07;;;5.90;99.90;;;;;;4963562;28;20030;-87
2022/03/27 06:25:29;;;;;;;21.42;10.25;;;5.90;99.90;;;;;;4963155;28;20027;-86
2022/03/27 06:27:55;;;;;;;22.90;9.68;;;5.90;99.90;;;;;;4981057;28;20026;-85
2022/03/27 06:30:23;;;;;;;19.63;9.55;;;5.90;99.90;;;;;;4963248;28;20023;-85
2022/03/27 06:32:51;;;;;;;26.00;9.35;;;6.00;99.90;;;;;;4992099;28;20022;-87
2022/03/27 06:35:19;;;;;;;21.13;9.93;;;6.10;99.90;;;;;;4982766;28;20398;-86
2022/03/27 06:37:45;;;;;;;21.48;10.07;;;6.30;99.90;;;;;;5000877;28;20101;-87
2022/03/27 06:40:13;;;;;;;22.17;9.65;;;6.40;99.90;;;;;;5000866;28;20022;-86
2022/03/27 06:42:39;;;;;;;17.83;8.77;;;6.50;99.90;;;;;;5000773;28;20034;-86
2022/03/27 06:45:06;;;;;;;21.63;9.32;;;6.60;99.90;;;;;;4981357;28;20564;-85
2022/03/27 06:47:33;;;;;;;18.08;9.05;;;6.60;99.90;;;;;;4997007;28;20041;-86
2022/03/27 06:50:01;;;;;;;21.83;9.95;;;6.70;99.90;;;;;;4981277;28;20030;-86
2022/03/27 06:52:27;;;;;;;17.98;8.93;;;6.80;99.90;;;;;;4987749;28;20019;-87
2022/03/27 06:54:54;;;;;;;24.50;10.32;;;6.80;99.90;;;;;;4990881;28;20038;-85
2022/03/27 06:57:20;;;;;;;22.13;8.90;;;6.90;99.90;;;;;;4997619;28;20051;-85
2022/03/27 07:05:15;;;;;;;24.58;10.05;;;7.20;99.90;;;;;;4987284;28;20034;-87
2022/03/27 07:07:43;;;;;;;25.60;9.95;;;7.30;99.90;;;;;;4983961;28;20019;-88
2022/03/27 07:10:10;;;;;;;20.08;9.68;;;7.50;99.90;;;;;;4984357;28;20042;-88
2022/03/27 07:12:36;;;;;;;20.08;9.70;;;7.60;99.90;;;;;;4990282;28;20041;-86
2022/03/27 07:15:02;;;;;;;24.20;9.18;;;7.60;99.90;;;;;;4998196;28;20026;-85
2022/03/27 07:17:27;;;;;;;20.02;9.63;;;7.70;99.90;;;;;;5000313;28;20026;-87
2022/03/27 07:19:53;;;;;;;18.92;9.82;;;7.80;99.90;;;;;;5001607;28;20026;-86
2022/03/27 07:22:18;;;;;;;22.23;9.20;;;7.80;99.90;;;;;;4984309;28;20033;-87
2022/03/27 07:24:45;;;;;;;20.45;9.30;;;7.90;99.90;;;;;;4981230;28;20538;-85
2022/03/27 07:27:12;;;;;;;22.10;9.23;;;8.00;99.90;;;;;;4998612;28;20038;-87
2022/03/27 07:29:38;;;;;;;24.25;10.40;;;8.10;99.90;;;;;;5002464;28;20022;-86
2022/03/27 07:32:07;;;;;;;22.15;9.65;;;8.20;99.90;;;;;;5002344;28;20022;-85
2022/03/27 07:34:34;;;;;;;22.30;9.65;;;8.30;99.90;;;;;;5002369;28;20554;-86
2022/03/27 07:37:00;;;;;;;19.10;9.48;;;8.40;99.90;;;;;;5002010;28;20030;-87
2022/03/27 07:39:26;;;;;;;19.77;9.48;;;8.60;99.90;;;;;;5002389;28;20030;-86
2022/03/27 07:41:51;;;;;;;25.60;10.27;;;9.00;98.50;;;;;;5002275;28;20368;-87
2022/03/27 07:44:17;;;;;;;30.17;9.07;;;9.20;96.30;;;;;;5002935;28;20495;-87
2022/03/27 07:46:43;;;;;;;22.73;10.80;;;9.50;92.40;;;;;;5002100;28;20041;-87
2022/03/27 07:49:09;;;;;;;24.25;10.27;;;9.80;90.60;;;;;;5002365;28;20096;-87
2022/03/27 07:51:35;;;;;;;21.15;9.63;;;10.00;87.90;;;;;;5000876;28;20379;-88
2022/03/27 07:54:01;;;;;;;32.17;9.85;;;10.30;86.20;;;;;;4999564;28;20081;-84
2022/03/27 07:56:27;;;;;;;24.35;10.52;;;10.40;83.40;;;;;;4998085;28;20052;-85
2022/03/27 07:58:53;;;;;;;21.15;9.93;;;10.70;82.70;;;;;;4980964;28;20026;-86
2022/03/27 08:01:19;;;;;;;26.02;10.45;;;11.40;76.10;;;;;;4998729;28;20372;-86
2022/03/27 08:03:45;;;;;;;20.75;9.45;;;11.90;72.60;;;;;;4999041;28;20537;-86
2022/03/27 08:06:10;;;;;;;26.45;11.23;;;12.10;70.30;;;;;;4964727;28;20026;-86
2022/03/27 08:08:36;;;;;;;21.02;10.63;;;;;;;;;;4980760;28;20097;-87
2022/03/27 08:11:02;;;;;;;26.63;11.15;;;;;;;;;;4981231;28;20030;-86
2022/03/27 08:13:28;;;;;;;21.25;10.23;;;;;;;;;;4982008;28;20023;-86
2022/03/27 08:15:54;;;;;;;20.10;9.05;;;;;;;;;;4981058;28;20027;-87
2022/03/27 08:18:21;;;;;;;20.58;9.50;;;;;;;;;;4984107;28;20038;-87
2022/03/27 08:20:47;;;;;;;20.80;9.50;;;;;;;;;;4981189;28;20037;-87
2022/03/27 08:23:13;;;;;;;17.60;9.43;;;;;;;;;;4981063;28;20394;-86
2022/03/27 08:28:24;;;;;;;19.77;8.35;;;;;;;;;;4981922;28;20045;-86
2022/03/27 08:30:50;;;;;;;20.27;9.25;;;;;;;;;;4981626;28;20027;-86
2022/03/27 08:33:17;;;;;;;26.00;9.65;;;;;;;;;;4980320;28;20030;-87
2022/03/27 08:35:43;;;;;;;17.48;9.15;;;;;;;;;;4977924;28;20554;-85
2022/03/27 08:38:13;;;;;;;16.95;8.80;;;;;;;;;;4984611;28;20026;-86
2022/03/27 08:40:43;;;;;;;19.88;10.20;;;;;;;;;;4977852;28;20112;-86
2022/03/27 08:43:11;;;;;;;17.70;9.45;;;;;;;;;;4996126;28;20022;-86
2022/03/27 08:45:37;;;;;;;26.80;10.15;;;;;;;;;;4978023;28;20036;-87
2022/03/27 08:48:04;;;;;;;23.35;9.57;;;;;;;;;;4977023;28;20057;-86
2022/03/27 08:50:34;;;;;;;15.60;9.00;;;;;;;;;;4984256;28;20126;-87
2022/03/27 08:53:05;;;;;;;18.15;9.73;;;;;;;;;;4977798;28;20030;-86
2022/03/27 08:55:31;;;;;;;20.33;10.00;;;;;;;;;;4996130;28;20041;-87
2022/03/27 08:57:58;;;;;;;19.92;9.05;;;;;;;;;;4995348;28;20089;-86
2022/03/27 09:00:33;;;;;;;17.73;8.88;;;;;;;;;;4966529;28;20542;-87
2022/03/27 09:03:00;;;;;;;20.83;9.23;;;;;;;;;;4984723;28;20017;-86
2022/03/27 09:05:26;;;;;;;20.08;10.45;;;;;;;;;;4979503;28;20435;-86
2022/03/27 09:07:53;;;;;;;22.20;9.63;;;;;;;;;;4991440;28;20030;-84
2022/03/27 09:10:19;;;;;;;19.50;10.63;;;;;;;;;;4984062;28;20037;-85
2022/03/27 09:12:46;;;;;;;21.40;10.05;;;;;;;;;;4999574;28;20092;-85
2022/03/27 09:15:13;;;;;;;21.63;10.45;;;;;;;;;;4999206;28;20043;-87
2022/03/27 09:17:58;;;;;;;23.85;10.25;;;;;;;;;;4991744;28;20023;-88
2022/03/27 09:20:41;;;;;;;32.13;10.63;;;;;;;;;;4980566;28;20024;-87
2022/03/27 09:23:21;;;;;;;17.40;9.57;;;;;;;;;;4977994;28;20031;-86
2022/03/27 09:25:53;;;;;;;17.95;9.68;;;;;;;;;;4980046;28;20018;-86
2022/03/27 09:28:38;;;;;;;27.23;11.00;;;;;;;;;;4980665;28;20081;-86
2022/03/27 09:31:21;;;;;;;23.55;11.65;;;;;;;;;;4980258;28;20440;-85
2022/03/27 09:34:07;;;;;;;28.95;10.80;;;;;;;;;;4962382;28;20053;-86
2022/03/27 09:36:37;;;;;;;24.05;10.55;;;;;;;;;;4978685;28;20118;-87
2022/03/27 09:39:13;;;;;;;22.55;10.32;;;;;;;;;;4961191;28;20058;-87
2022/03/27 09:41:58;;;;;;;20.45;11.13;;;;;;;;;;4977872;28;20108;-86
2022/03/27 09:44:31;;;;;;;20.23;10.13;;;;;;;;;;4960511;28;20102;-85
2022/03/27 09:46:57;;;;;;;21.55;10.32;;;;;;;;;;4959949;28;20034;-86
2022/03/27 09:49:28;;;;;;;17.63;9.65;;;;;;;;;;4977723;28;20125;-86
2022/03/27 09:51:54;;;;;;;20.63;10.05;;;;;;;;;;4959447;28;20219;-87
2022/03/27 09:54:21;;;;;;;25.10;10.93;;;;;;;;;;4959059;28;20095;-86
2022/03/27 09:56:47;;;;;;;21.13;9.60;;;;;;;;;;4976751;28;20031;-87
2022/03/27 09:59:27;;;;;;;23.60;10.10;;;;;;;;;;4977115;28;20027;-85
2022/03/27 10:01:53;;;;;;;23.03;9.93;;;;;;;;;;4977151;28;20042;-86
2022/03/27 10:04:19;;;;;;;21.90;10.10;;;;;;;;;;4978594;28;20615;-86
2022/03/27 10:06:45;;;;;;;25.45;10.77;;;;;;;;;;4997288;28;20062;-84
2022/03/27 10:09:12;;;;;;;22.75;9.57;;;;;;;;;;4998879;28;20026;-85
2022/03/27 10:11:39;;;;;;;22.65;9.85;;;;;;;;;;4998059;28;20031;-85
2022/03/27 10:14:06;;;;;;;22.80;10.27;;;;;;;;;;4979931;28;20034;-86
2022/03/27 10:16:36;;;;;;;17.33;9.93;;;;;;;;;;4998149;28;20022;-85
2022/03/27 10:19:07;;;;;;;18.48;9.93;;;;;;;;;;4978941;28;20487;-86
2022/03/27 10:21:33;;;;;;;15.77;9.52;;;;;;;;;;4978988;28;20038;-86
2022/03/27 10:24:12;;;;;;;20.10;9.32;;;;;;;;;;4979061;28;20031;-86
2022/03/27 10:26:38;;;;;;;22.90;10.30;;;;;;;;;;4978309;28;20053;-87
2022/03/27 10:29:05;;;;;;;19.50;8.57;;;;;;;;;;4977893;28;20049;-86
2022/03/27 10:31:31;;;;;;;16.67;7.90;;;;;;;;;;4979494;28;20035;-85
2022/03/27 10:34:00;;;;;;;16.73;9.45;;;;;;;;;;4982195;28;20162;-87
2022/03/27 10:36:31;;;;;;;22.02;9.90;;;;;;;;;;4983019;28;20022;-87
2022/03/27 10:39:10;;;;;;;18.35;9.70;;;;;;;;;;4982454;28;20027;-86
2022/03/27 10:41:39;;;;;;;14.50;8.35;;;;;;;;;;4982432;28;20089;-88
2022/03/27 10:44:08;;;;;;;19.67;8.23;;;;;;;;;;4983322;28;20026;-87
2022/03/27 10:46:34;;;;;;;18.33;8.43;;;;;;;;;;4982822;28;20119;-87
2022/03/27 10:49:14;;;;;;;14.07;8.27;;;;;;;;;;4982466;28;20035;-87
2022/03/27 10:51:40;;;;;;;;;;;;;;;;;;4981629;28;20428;-86
2022/03/27 10:54:11;;;;;;;14.75;6.90;;;;;;;;;;4963616;28;19969;-84
2022/03/27 10:56:41;;;;;;;24.45;8.55;;;;;;;;;;4982132;28;20034;-87
2022/03/27 10:59:07;;;;;;;;;;;;;;;;;;4965706;28;20022;-85
2022/03/27 11:01:38;;;;;;;12.80;6.60;;;;;;;;;;4964992;28;19913;-87
2022/03/27 11:04:11;;;;;;;14.85;7.68;;;;;;;;;;4982044;28;20091;-86
2022/03/27 11:06:38;;;;;;;11.65;6.60;;;;;;;;;;4981257;28;20038;-87
2022/03/27 11:09:05;;;;;;;11.90;6.47;;;;;;;;;;4981290;28;20027;-84
2022/03/27 11:11:34;;;;;;;11.45;6.40;;;;;;;;;;4963537;28;20071;-87
2022/03/27 11:14:00;;;;;;;13.07;7.03;;;;;;;;;;4964165;28;20063;-84
2022/03/27 11:16:27;;;;;;;11.95;7.53;;;;;;;;;;4982197;28;20047;-85
2022/03/27 11:18:53;;;;;;;15.82;7.63;;;;;;;;;;4964137;28;20050;-86
2022/03/27 11:21:28;;;;;;;11.38;6.75;;;;;;;;;;4981442;28;20113;-87
2022/03/27 11:24:15;;;;;;;13.98;6.80;;;;;;;;;;4981733;28;20026;-87
2022/03/27 11:26:41;;;;;;;11.15;6.70;;;;;;;;;;4947541;28;20482;-86
2022/03/27 11:29:23;;;;;;;12.38;7.18;;;;;;;;;;4980038;28;20031;-86
2022/03/27 11:32:07;;;;;;;12.52;6.00;;;;;;;;;;4980554;28;20026;-86
2022/03/27 11:34:33;;;;;;;9.38;5.90;;;;;;;;;;4988024;28;20026;-86
2022/03/27 11:37:34;;;;;;;12.48;5.22;;;;;;;;;;4982269;28;20026;-85
2022/03/27 11:40:00;;;;;;;12.68;5.40;;;;;;;;;;4870743;29;20613;-87
2022/03/27 11:42:28;;;;;;;11.38;6.47;;;;;;;;;;4962711;28;20039;-87
2022/03/27 11:45:14;;;;;;;9.85;5.60;;;;;;;;;;4982218;28;20022;-87
2022/03/27 11:47:44;;;;;;;10.32;6.40;;;;;;;;;;4982755;28;20027;-87
2022/03/27 11:50:19;;;;;;;16.08;7.53;;;;;;;;;;4981878;28;20113;-87
2022/03/27 11:52:46;;;;;;;14.88;6.80;;;;;;;;;;4982568;28;20023;-86
2022/03/27 11:55:13;;;;;;;9.98;5.65;;;;;;;;;;4981776;28;20031;-87
2022/03/27 11:57:49;;;;;;;11.35;6.13;;;;;;;;;;4982045;28;20495;-87
2022/03/27 12:00:15;;;;;;;12.30;6.88;;;;;;;;;;4981190;28;20053;-87
2022/03/27 12:02:45;;;;;;;10.80;6.82;;;;;;;;;;4980971;28;20030;-87
2022/03/27 12:05:14;;;;;;;11.10;6.60;;;;;;;;;;4971703;28;20088;-87
2022/03/27 12:07:49;;;;;;;12.00;6.38;;;;;;;;;;5001263;28;20026;-87
2022/03/27 12:10:15;;;;;;;7.60;5.07;;;;;;;;;;5001130;28;20093;-87
2022/03/27 12:12:58;;;;;;;14.85;6.60;;;;;;;;;;5001061;28;20078;-87
2022/03/27 12:15:35;;;;;;;19.45;6.22;;;;;;;;;;5000669;28;20486;-87
2022/03/27 12:18:02;;;;;;;8.95;5.90;;;;;;;;;;5000327;28;20030;-87
2022/03/27 12:20:28;;;;;;;13.25;6.10;;;;;;;;;;5001293;28;20042;-86
2022/03/27 12:22:54;;;;;;;9.65;5.55;;;;;;;;;;5000584;28;20085;-87
2022/03/27 12:25:20;;;;;;;11.00;6.15;;;;;;;;;;4984098;28;20034;-87
2022/03/27 12:30:43;;;;;;;10.52;6.07;;;;;;;;;;5000957;28;20437;-87
2022/03/27 12:33:09;;;;;;;7.95;5.03;;;;;;;;;;4983904;28;20081;-86
2022/03/27 12:35:35;;;;;;;8.23;5.05;;;;;;;;;;5001235;28;20463;-87
2022/03/27 12:38:01;;;;;;;10.32;5.30;;;;;;;;;;4983316;28;20042;-86
2022/03/27 12:40:28;;;;;;;12.30;5.93;;;;;;;;;;5001666;28;20022;-87
2022/03/27 12:42:55;;;;;;;11.68;5.55;;;;;;;;;;5000958;28;20077;-85
2022/03/27 12:45:29;;;;;;;11.68;5.68;;;;;;;;;;5000807;28;20018;-86
2022/03/27 12:47:58;;;;;;;8.80;5.05;;;;;;;;;;4982025;28;20027;-85
2022/03/27 12:50:27;;;;;;;13.73;7.35;;;;;;;;;;4998862;28;20030;-85
2022/03/27 12:52:54;;;;;;;15.63;7.75;;;;;;;;;;4978283;28;20491;-85
2022/03/27 12:55:20;;;;;;;20.48;7.95;;;;;;;;;;4982892;28;20203;-85
2022/03/27 12:57:55;;;;;;;13.68;6.75;;;;;;;;;;4989815;28;20138;-86
2022/03/27 13:00:31;;;;;;;11.45;5.55;;;;;;;;;;4976208;28;20076;-86
2022/03/27 13:03:16;;;;;;;9.95;5.50;;;;;;;;;;4994663;28;20376;-85
2022/03/27 13:05:58;;;;;;;9.68;5.28;;;;;;;;;;5029605;23;20061;-86
2022/03/27 13:08:25;;;;;;;13.80;7.18;;;;;;;;;;5014206;28;20604;-85
2022/03/27 13:10:57;;;;;;;14.43;5.80;;;;;;;;;;4980460;28;20153;-85
2022/03/27 13:13:44;;;;;;;16.60;7.40;;;;;;;;;;5001313;28;20021;-84
2022/03/27 13:16:28;;;;;;;14.98;6.15;;;;;;;;;;4997692;28;20029;-86
2022/03/27 13:19:08;;;;;;;28.85;6.13;;;;;;;;;;4979060;28;20022;-84
2022/03/27 13:21:41;;;;;;;20.30;11.85;;;;;;;;;;4976797;28;20080;-85
2022/03/27 13:24:09;;;;;;;20.80;10.30;;;;;;;;;;5000022;28;20094;-83
2022/03/27 13:26:35;;;;;;;18.70;8.13;;;;;;;;;;4995672;28;20105;-84
2022/03/27 13:29:04;;;;;;;17.73;8.00;;;;;;;;;;4977932;28;20035;-83
2022/03/27 13:31:30;;;;;;;14.52;6.60;;;;;;;;;;4976850;28;20113;-84
2022/03/27 13:33:56;;;;;;;12.10;6.80;;;;;;;;;;4995532;28;20561;-84
2022/03/27 13:36:22;;;;;;;15.32;7.57;;;24.60;28.10;;;;;;4995795;28;20121;-84
2022/03/27 13:38:48;;;;;;;16.80;7.45;;;24.60;28.60;;;;;;5009452;28;20018;-84